sensor_id;sensor_type;location;lat;lon;timestamp;pressure;altitude;pressure_sealevel;temperature
34310;BMP280;61664;48.112;11.662;2023-12-29T00:02:22;95694.41;;;12.90
34310;BMP280;61664;48.112;11.662;2023-12-29T00:04:49;95690.28;;;12.89
34310;BMP280;61664;48.112;11.662;2023-12-29T00:07:16;95678.72;;;12.83
34310;BMP280;61664;48.112;11.662;2023-12-29T00:09:47;95675.47;;;12.79
34310;BMP280;61664;48.112;11.662;2023-12-29T00:12:14;95667.81;;;12.72
34310;BMP280;61664;48.112;11.662;2023-12-29T00:14:41;95662.38;;;12.67
34310;BMP280;61664;48.112;11.662;2023-12-29T00:17:09;95664.69;;;12.59
34310;BMP280;61664;48.112;11.662;2023-12-29T00:19:36;95653.06;;;12.47
34310;BMP280;61664;48.112;11.662;2023-12-29T00:22:04;95646.75;;;12.36
34310;BMP280;61664;48.112;11.662;2023-12-29T00:24:31;95651.03;;;12.28
34310;BMP280;61664;48.112;11.662;2023-12-29T00:26:58;95659.97;;;12.25
34310;BMP280;61664;48.112;11.662;2023-12-29T00:29:26;95641.84;;;12.05
34310;BMP280;61664;48.112;11.662;2023-12-29T00:31:54;95650.88;;;12.07
34310;BMP280;61664;48.112;11.662;2023-12-29T00:34:23;95649.03;;;11.99
34310;BMP280;61664;48.112;11.662;2023-12-29T00:36:50;95648.69;;;11.91
34310;BMP280;61664;48.112;11.662;2023-12-29T00:39:17;95638.91;;;11.79
34310;BMP280;61664;48.112;11.662;2023-12-29T00:41:44;95624.03;;;11.63
34310;BMP280;61664;48.112;11.662;2023-12-29T00:44:11;95632.91;;;11.69
34310;BMP280;61664;48.112;11.662;2023-12-29T00:46:38;95648.50;;;11.71
34310;BMP280;61664;48.112;11.662;2023-12-29T00:49:05;95637.69;;;11.65
34310;BMP280;61664;48.112;11.662;2023-12-29T00:51:32;95634.56;;;11.67
34310;BMP280;61664;48.112;11.662;2023-12-29T00:53:59;95634.56;;;11.67
34310;BMP280;61664;48.112;11.662;2023-12-29T00:56:26;95616.81;;;11.54
34310;BMP280;61664;48.112;11.662;2023-12-29T00:58:53;95613.28;;;11.48
34310;BMP280;61664;48.112;11.662;2023-12-29T01:01:20;95633.34;;;11.53
34310;BMP280;61664;48.112;11.662;2023-12-29T01:03:47;95621.94;;;11.43
34310;BMP280;61664;48.112;11.662;2023-12-29T01:06:14;95624.34;;;11.41
34310;BMP280;61664;48.112;11.662;2023-12-29T01:08:41;95618.75;;;11.30
34310;BMP280;61664;48.112;11.662;2023-12-29T01:11:08;95627.34;;;11.34
34310;BMP280;61664;48.112;11.662;2023-12-29T01:13:36;95613.75;;;11.23
34310;BMP280;61664;48.112;11.662;2023-12-29T01:16:04;95615.78;;;11.28
34310;BMP280;61664;48.112;11.662;2023-12-29T01:18:31;95624.91;;;11.22
34310;BMP280;61664;48.112;11.662;2023-12-29T01:20:59;95635.91;;;11.24
34310;BMP280;61664;48.112;11.662;2023-12-29T01:23:25;95628.66;;;11.15
34310;BMP280;61664;48.112;11.662;2023-12-29T01:25:52;95644.06;;;11.20
34310;BMP280;61664;48.112;11.662;2023-12-29T01:28:19;95636.56;;;11.09
34310;BMP280;61664;48.112;11.662;2023-12-29T01:30:46;95648.38;;;11.17
34310;BMP280;61664;48.112;11.662;2023-12-29T01:33:13;95650.78;;;11.15
34310;BMP280;61664;48.112;11.662;2023-12-29T01:35:40;95641.91;;;11.09
34310;BMP280;61664;48.112;11.662;2023-12-29T01:38:07;95643.34;;;11.10
34310;BMP280;61664;48.112;11.662;2023-12-29T01:40:46;95622.94;;;10.98
34310;BMP280;61664;48.112;11.662;2023-12-29T01:43:13;95627.81;;;11.00
34310;BMP280;61664;48.112;11.662;2023-12-29T01:45:41;95616.56;;;10.96
34310;BMP280;61664;48.112;11.662;2023-12-29T01:48:23;95627.09;;;10.99
34310;BMP280;61664;48.112;11.662;2023-12-29T01:50:52;95623.38;;;10.97
34310;BMP280;61664;48.112;11.662;2023-12-29T01:53:20;95620.41;;;10.95
34310;BMP280;61664;48.112;11.662;2023-12-29T01:55:59;95611.53;;;10.88
34310;BMP280;61664;48.112;11.662;2023-12-29T01:58:28;95604.16;;;10.83
34310;BMP280;61664;48.112;11.662;2023-12-29T02:00:55;95608.56;;;10.86
34310;BMP280;61664;48.112;11.662;2023-12-29T02:03:22;95613.75;;;10.90
34310;BMP280;61664;48.112;11.662;2023-12-29T02:05:50;95597.00;;;10.80
34310;BMP280;61664;48.112;11.662;2023-12-29T02:08:17;95610.06;;;10.87
34310;BMP280;61664;48.112;11.662;2023-12-29T02:10:44;95598.19;;;10.79
34310;BMP280;61664;48.112;11.662;2023-12-29T02:13:11;95603.13;;;10.81
34310;BMP280;61664;48.112;11.662;2023-12-29T02:15:39;95602.97;;;10.84
34310;BMP280;61664;48.112;11.662;2023-12-29T02:18:10;95594.03;;;10.78
34310;BMP280;61664;48.112;11.662;2023-12-29T02:20:42;95592.84;;;10.79
34310;BMP280;61664;48.112;11.662;2023-12-29T02:23:09;95594.19;;;10.84
34310;BMP280;61664;48.112;11.662;2023-12-29T02:25:37;95582.63;;;10.78
34310;BMP280;61664;48.112;11.662;2023-12-29T02:28:27;95583.22;;;10.82
34310;BMP280;61664;48.112;11.662;2023-12-29T02:31:04;95573.31;;;10.73
34310;BMP280;61664;48.112;11.662;2023-12-29T02:33:38;95580.88;;;10.75
34310;BMP280;61664;48.112;11.662;2023-12-29T02:36:08;95592.72;;;10.83
34310;BMP280;61664;48.112;11.662;2023-12-29T02:38:36;95586.78;;;10.79
34310;BMP280;61664;48.112;11.662;2023-12-29T02:41:03;95567.09;;;10.67
34310;BMP280;61664;48.112;11.662;2023-12-29T02:43:33;95584.41;;;10.81
34310;BMP280;61664;48.112;11.662;2023-12-29T02:46:00;95590.50;;;10.81
34310;BMP280;61664;48.112;11.662;2023-12-29T02:48:28;95590.34;;;10.85
34310;BMP280;61664;48.112;11.662;2023-12-29T02:50:55;95583.31;;;10.87
34310;BMP280;61664;48.112;11.662;2023-12-29T02:53:22;95564.50;;;10.82
34310;BMP280;61664;48.112;11.662;2023-12-29T02:55:48;95565.25;;;10.82
34310;BMP280;61664;48.112;11.662;2023-12-29T02:58:15;95559.00;;;10.85
34310;BMP280;61664;48.112;11.662;2023-12-29T03:00:42;95544.63;;;10.83
34310;BMP280;61664;48.112;11.662;2023-12-29T03:03:10;95540.59;;;10.78
34310;BMP280;61664;48.112;11.662;2023-12-29T03:05:37;95546.63;;;10.88
34310;BMP280;61664;48.112;11.662;2023-12-29T03:08:04;95541.75;;;10.86
34310;BMP280;61664;48.112;11.662;2023-12-29T03:10:31;95548.84;;;10.90
34310;BMP280;61664;48.112;11.662;2023-12-29T03:12:58;95540.84;;;10.90
34310;BMP280;61664;48.112;11.662;2023-12-29T03:15:25;95547.91;;;11.02
34310;BMP280;61664;48.112;11.662;2023-12-29T03:17:52;95534.88;;;10.95
34310;BMP280;61664;48.112;11.662;2023-12-29T03:20:19;95535.72;;;11.01
34310;BMP280;61664;48.112;11.662;2023-12-29T03:22:46;95532.72;;;11.08
34310;BMP280;61664;48.112;11.662;2023-12-29T03:25:13;95536.34;;;11.19
34310;BMP280;61664;48.112;11.662;2023-12-29T03:27:40;95543.28;;;11.26
34310;BMP280;61664;48.112;11.662;2023-12-29T03:30:07;95544.69;;;11.36
34310;BMP280;61664;48.112;11.662;2023-12-29T03:32:35;95549.06;;;11.48
34310;BMP280;61664;48.112;11.662;2023-12-29T03:35:02;95546.38;;;11.48
34310;BMP280;61664;48.112;11.662;2023-12-29T03:37:29;95547.50;;;11.57
34310;BMP280;61664;48.112;11.662;2023-12-29T03:39:56;95553.00;;;11.62
34310;BMP280;61664;48.112;11.662;2023-12-29T03:42:23;95557.69;;;11.67
34310;BMP280;61664;48.112;11.662;2023-12-29T03:44:50;95556.66;;;11.65
34310;BMP280;61664;48.112;11.662;2023-12-29T03:47:17;95550.75;;;11.61
34310;BMP280;61664;48.112;11.662;2023-12-29T03:49:44;95546.31;;;11.58
34310;BMP280;61664;48.112;11.662;2023-12-29T03:52:11;95543.56;;;11.52
34310;BMP280;61664;48.112;11.662;2023-12-29T03:54:38;95540.13;;;11.51
34310;BMP280;61664;48.112;11.662;2023-12-29T03:57:05;95550.09;;;11.51
34310;BMP280;61664;48.112;11.662;2023-12-29T03:59:32;95536.97;;;11.38
34310;BMP280;61664;48.112;11.662;2023-12-29T04:02:02;95546.13;;;11.46
34310;BMP280;61664;48.112;11.662;2023-12-29T04:04:29;95543.72;;;11.48
34310;BMP280;61664;48.112;11.662;2023-12-29T04:06:57;95536.91;;;11.47
34310;BMP280;61664;48.112;11.662;2023-12-29T04:09:24;95537.53;;;11.57
34310;BMP280;61664;48.112;11.662;2023-12-29T04:11:50;95540.59;;;11.65
34310;BMP280;61664;48.112;11.662;2023-12-29T04:14:17;95532.31;;;11.63
34310;BMP280;61664;48.112;11.662;2023-12-29T04:16:44;95532.41;;;11.68
34310;BMP280;61664;48.112;11.662;2023-12-29T04:19:11;95525.13;;;11.69
34310;BMP280;61664;48.112;11.662;2023-12-29T04:21:41;95518.28;;;11.68
34310;BMP280;61664;48.112;11.662;2023-12-29T04:24:08;95525.69;;;11.73
34310;BMP280;61664;48.112;11.662;2023-12-29T04:26:36;95535.56;;;11.81
34310;BMP280;61664;48.112;11.662;2023-12-29T04:29:04;95523.75;;;11.73
34310;BMP280;61664;48.112;11.662;2023-12-29T04:31:31;95528.44;;;11.78
34310;BMP280;61664;48.112;11.662;2023-12-29T04:33:58;95525.00;;;11.78
34310;BMP280;61664;48.112;11.662;2023-12-29T04:36:25;95523.28;;;11.75
34310;BMP280;61664;48.112;11.662;2023-12-29T04:38:51;95520.16;;;11.76
34310;BMP280;61664;48.112;11.662;2023-12-29T04:41:21;95524.19;;;11.72
34310;BMP280;61664;48.112;11.662;2023-12-29T04:43:48;95528.91;;;11.77
34310;BMP280;61664;48.112;11.662;2023-12-29T04:46:15;95511.16;;;11.65
34310;BMP280;61664;48.112;11.662;2023-12-29T04:48:42;95528.06;;;11.71
34310;BMP280;61664;48.112;11.662;2023-12-29T04:51:09;95516.72;;;11.61
34310;BMP280;61664;48.112;11.662;2023-12-29T04:53:36;95524.56;;;11.65
34310;BMP280;61664;48.112;11.662;2023-12-29T04:56:03;95522.72;;;11.71
34310;BMP280;61664;48.112;11.662;2023-12-29T04:58:30;95511.63;;;11.63
34310;BMP280;61664;48.112;11.662;2023-12-29T05:00:57;95525.84;;;11.69
34310;BMP280;61664;48.112;11.662;2023-12-29T05:03:25;95534.72;;;11.75
34310;BMP280;61664;48.112;11.662;2023-12-29T05:05:52;95531.59;;;11.77
34310;BMP280;61664;48.112;11.662;2023-12-29T05:08:19;95532.44;;;11.83
34310;BMP280;61664;48.112;11.662;2023-12-29T05:10:46;95527.69;;;11.78
34310;BMP280;61664;48.112;11.662;2023-12-29T05:13:13;95518.94;;;11.77
34310;BMP280;61664;48.112;11.662;2023-12-29T05:15:40;95532.72;;;11.85
34310;BMP280;61664;48.112;11.662;2023-12-29T05:18:07;95527.53;;;11.81
34310;BMP280;61664;48.112;11.662;2023-12-29T05:20:34;95521.00;;;11.82
34310;BMP280;61664;48.112;11.662;2023-12-29T05:23:01;95513.31;;;11.75
34310;BMP280;61664;48.112;11.662;2023-12-29T05:25:28;95512.84;;;11.77
34310;BMP280;61664;48.112;11.662;2023-12-29T05:27:55;95505.06;;;11.79
34310;BMP280;61664;48.112;11.662;2023-12-29T05:30:22;95516.72;;;11.76
34310;BMP280;61664;48.112;11.662;2023-12-29T05:32:48;95525.88;;;11.84
34310;BMP280;61664;48.112;11.662;2023-12-29T05:35:15;95531.22;;;11.84
34310;BMP280;61664;48.112;11.662;2023-12-29T05:37:42;95530.94;;;11.82
34310;BMP280;61664;48.112;11.662;2023-12-29T05:40:10;95528.56;;;11.84
34310;BMP280;61664;48.112;11.662;2023-12-29T05:42:37;95534.72;;;11.90
34310;BMP280;61664;48.112;11.662;2023-12-29T05:45:04;95533.56;;;11.91
34310;BMP280;61664;48.112;11.662;2023-12-29T05:47:31;95540.91;;;11.96
34310;BMP280;61664;48.112;11.662;2023-12-29T05:49:59;95532.59;;;11.94
34310;BMP280;61664;48.112;11.662;2023-12-29T05:52:26;95540.38;;;11.92
34310;BMP280;61664;48.112;11.662;2023-12-29T05:54:53;95538.59;;;11.89
34310;BMP280;61664;48.112;11.662;2023-12-29T05:57:20;95537.13;;;11.88
34310;BMP280;61664;48.112;11.662;2023-12-29T05:59:47;95530.75;;;11.85
34310;BMP280;61664;48.112;11.662;2023-12-29T06:02:14;95546.81;;;12.00
34310;BMP280;61664;48.112;11.662;2023-12-29T06:04:41;95532.16;;;11.96
34310;BMP280;61664;48.112;11.662;2023-12-29T06:07:08;95544.44;;;12.02
34310;BMP280;61664;48.112;11.662;2023-12-29T06:09:36;95546.19;;;12.05
34310;BMP280;61664;48.112;11.662;2023-12-29T06:12:03;95546.19;;;12.05
34310;BMP280;61664;48.112;11.662;2023-12-29T06:14:30;95541.28;;;12.04
34310;BMP280;61664;48.112;11.662;2023-12-29T06:16:57;95545.44;;;12.05
34310;BMP280;61664;48.112;11.662;2023-12-29T06:19:24;95550.44;;;12.12
34310;BMP280;61664;48.112;11.662;2023-12-29T06:21:51;95532.69;;;12.00
34310;BMP280;61664;48.112;11.662;2023-12-29T06:24:18;95559.47;;;12.14
34310;BMP280;61664;48.112;11.662;2023-12-29T06:26:45;95550.22;;;12.15
34310;BMP280;61664;48.112;11.662;2023-12-29T06:29:12;95556.16;;;12.19
34310;BMP280;61664;48.112;11.662;2023-12-29T06:31:42;95552.66;;;12.13
34310;BMP280;61664;48.112;11.662;2023-12-29T06:34:10;95553.47;;;12.19
34310;BMP280;61664;48.112;11.662;2023-12-29T06:36:37;95543.22;;;12.18
34310;BMP280;61664;48.112;11.662;2023-12-29T06:39:04;95554.31;;;12.26
34310;BMP280;61664;48.112;11.662;2023-12-29T06:41:32;95563.06;;;12.26
34310;BMP280;61664;48.112;11.662;2023-12-29T06:43:58;95543.78;;;12.22
34310;BMP280;61664;48.112;11.662;2023-12-29T06:46:26;95539.34;;;12.19
34310;BMP280;61664;48.112;11.662;2023-12-29T06:48:53;95545.06;;;12.27
34310;BMP280;61664;48.112;11.662;2023-12-29T06:51:20;95538.88;;;12.20
34310;BMP280;61664;48.112;11.662;2023-12-29T06:53:50;95538.59;;;12.18
34310;BMP280;61664;48.112;11.662;2023-12-29T06:56:17;95564.47;;;12.21
34310;BMP280;61664;48.112;11.662;2023-12-29T06:58:47;95562.41;;;12.16
34310;BMP280;61664;48.112;11.662;2023-12-29T07:01:14;95548.19;;;12.10
34310;BMP280;61664;48.112;11.662;2023-12-29T07:03:43;95549.84;;;12.08
34310;BMP280;61664;48.112;11.662;2023-12-29T07:06:11;95526.31;;;11.97
34310;BMP280;61664;48.112;11.662;2023-12-29T07:08:38;95539.34;;;12.04
34310;BMP280;61664;48.112;11.662;2023-12-29T07:11:10;95550.13;;;12.10
34310;BMP280;61664;48.112;11.662;2023-12-29T07:13:38;95548.19;;;12.10
34310;BMP280;61664;48.112;11.662;2023-12-29T07:16:05;95542.50;;;12.03
34310;BMP280;61664;48.112;11.662;2023-12-29T07:18:32;95539.34;;;12.04
34310;BMP280;61664;48.112;11.662;2023-12-29T07:21:00;95542.78;;;12.05
34310;BMP280;61664;48.112;11.662;2023-12-29T07:23:27;95559.22;;;12.12
34310;BMP280;61664;48.112;11.662;2023-12-29T07:25:54;95555.06;;;12.11
34310;BMP280;61664;48.112;11.662;2023-12-29T07:28:21;95547.31;;;12.13
34310;BMP280;61664;48.112;11.662;2023-12-29T07:30:48;95557.06;;;12.16
34310;BMP280;61664;48.112;11.662;2023-12-29T07:33:15;95541.09;;;12.07
34310;BMP280;61664;48.112;11.662;2023-12-29T07:35:42;95570.28;;;12.20
34310;BMP280;61664;48.112;11.662;2023-12-29T07:38:09;95575.00;;;12.25
34310;BMP280;61664;48.112;11.662;2023-12-29T07:40:36;95571.13;;;12.26
34310;BMP280;61664;48.112;11.662;2023-12-29T07:43:04;95576.47;;;12.41
34310;BMP280;61664;48.112;11.662;2023-12-29T07:45:31;95556.69;;;12.38
34310;BMP280;61664;48.112;11.662;2023-12-29T07:47:58;95574.97;;;12.54
34310;BMP280;61664;48.112;11.662;2023-12-29T07:50:25;95567.91;;;12.57
34310;BMP280;61664;48.112;11.662;2023-12-29T07:52:52;95576.22;;;12.59
34310;BMP280;61664;48.112;11.662;2023-12-29T07:55:20;95589.53;;;12.68
34310;BMP280;61664;48.112;11.662;2023-12-29T07:57:47;95584.63;;;12.67
34310;BMP280;61664;48.112;11.662;2023-12-29T08:00:15;95583.88;;;12.66
34310;BMP280;61664;48.112;11.662;2023-12-29T08:02:43;95596.47;;;12.75
34310;BMP280;61664;48.112;11.662;2023-12-29T08:05:10;95566.97;;;12.60
34310;BMP280;61664;48.112;11.662;2023-12-29T08:07:37;95596.50;;;12.80
34310;BMP280;61664;48.112;11.662;2023-12-29T08:10:06;95583.78;;;12.75
34310;BMP280;61664;48.112;11.662;2023-12-29T08:12:34;95584.25;;;12.74
34310;BMP280;61664;48.112;11.662;2023-12-29T08:15:03;95591.34;;;12.77
34310;BMP280;61664;48.112;11.662;2023-12-29T08:17:30;95579.63;;;12.74
34310;BMP280;61664;48.112;11.662;2023-12-29T08:19:58;95577.69;;;12.75
34310;BMP280;61664;48.112;11.662;2023-12-29T08:22:24;95589.50;;;12.83
34310;BMP280;61664;48.112;11.662;2023-12-29T08:24:51;95584.03;;;12.77
34310;BMP280;61664;48.112;11.662;2023-12-29T08:27:24;95582.09;;;12.78
34310;BMP280;61664;48.112;11.662;2023-12-29T08:29:52;95582.38;;;12.80
34310;BMP280;61664;48.112;11.662;2023-12-29T08:32:20;95565.66;;;12.70
34310;BMP280;61664;48.112;11.662;2023-12-29T08:34:48;95572.09;;;12.78
34310;BMP280;61664;48.112;11.662;2023-12-29T08:37:17;95583.47;;;12.88
34310;BMP280;61664;48.112;11.662;2023-12-29T08:40:02;95589.66;;;12.94
34310;BMP280;61664;48.112;11.662;2023-12-29T08:42:51;95579.38;;;12.93
34310;BMP280;61664;48.112;11.662;2023-12-29T08:45:18;95589.69;;;13.00
34310;BMP280;61664;48.112;11.662;2023-12-29T08:47:45;95594.63;;;13.01
34310;BMP280;61664;48.112;11.662;2023-12-29T08:50:12;95584.34;;;13.00
34310;BMP280;61664;48.112;11.662;2023-12-29T08:52:39;95582.41;;;13.00
34310;BMP280;61664;48.112;11.662;2023-12-29T08:55:07;95591.53;;;13.08
34310;BMP280;61664;48.112;11.662;2023-12-29T08:57:34;95581.81;;;13.11
34310;BMP280;61664;48.112;11.662;2023-12-29T09:00:02;95575.97;;;13.12
34310;BMP280;61664;48.112;11.662;2023-12-29T09:02:29;95580.34;;;13.10
34310;BMP280;61664;48.112;11.662;2023-12-29T09:04:56;95584.78;;;13.13
34310;BMP280;61664;48.112;11.662;2023-12-29T09:07:23;95596.25;;;13.13
34310;BMP280;61664;48.112;11.662;2023-12-29T09:09:50;95593.28;;;13.11
34310;BMP280;61664;48.112;11.662;2023-12-29T09:12:17;95591.88;;;13.16
34310;BMP280;61664;48.112;11.662;2023-12-29T09:14:44;95598.50;;;13.20
34310;BMP280;61664;48.112;11.662;2023-12-29T09:17:11;95597.09;;;13.25
34310;BMP280;61664;48.112;11.662;2023-12-29T09:19:38;95590.59;;;13.32
34310;BMP280;61664;48.112;11.662;2023-12-29T09:22:07;95595.78;;;13.35
34310;BMP280;61664;48.112;11.662;2023-12-29T09:24:34;95591.88;;;13.36
34310;BMP280;61664;48.112;11.662;2023-12-29T09:27:01;95608.84;;;13.48
34310;BMP280;61664;48.112;11.662;2023-12-29T09:29:27;95604.03;;;13.52
34310;BMP280;61664;48.112;11.662;2023-12-29T09:31:54;95588.84;;;13.49
34310;BMP280;61664;48.112;11.662;2023-12-29T09:34:21;95600.97;;;13.65
34310;BMP280;61664;48.112;11.662;2023-12-29T09:36:48;95597.88;;;13.72
34310;BMP280;61664;48.112;11.662;2023-12-29T09:39:15;95599.19;;;13.82
34310;BMP280;61664;48.112;11.662;2023-12-29T09:41:46;95583.91;;;13.93
34310;BMP280;61664;48.112;11.662;2023-12-29T09:44:15;95584.97;;;14.02
34310;BMP280;61664;48.112;11.662;2023-12-29T09:49:14;95582.88;;;14.11
34310;BMP280;61664;48.112;11.662;2023-12-29T09:51:43;95594.13;;;14.15
34310;BMP280;61664;48.112;11.662;2023-12-29T09:54:12;95575.72;;;14.03
34310;BMP280;61664;48.112;11.662;2023-12-29T09:56:41;95591.19;;;14.13
34310;BMP280;61664;48.112;11.662;2023-12-29T09:59:13;95586.50;;;14.08
34310;BMP280;61664;48.112;11.662;2023-12-29T10:01:42;95570.44;;;13.88
34310;BMP280;61664;48.112;11.662;2023-12-29T10:04:11;95583.03;;;14.02
34310;BMP280;61664;48.112;11.662;2023-12-29T10:06:44;95579.81;;;13.98
34310;BMP280;61664;48.112;11.662;2023-12-29T10:09:20;95568.81;;;13.96
34310;BMP280;61664;48.112;11.662;2023-12-29T10:11:48;95574.97;;;14.02
34310;BMP280;61664;48.112;11.662;2023-12-29T10:14:30;95564.44;;;13.99
34310;BMP280;61664;48.112;11.662;2023-12-29T10:17:09;95566.63;;;14.00
34310;BMP280;61664;48.112;11.662;2023-12-29T10:20:03;95559.28;;;13.95
34310;BMP280;61664;48.112;11.662;2023-12-29T10:23:06;95562.00;;;14.01
34310;BMP280;61664;48.112;11.662;2023-12-29T10:25:35;95557.59;;;13.98
34310;BMP280;61664;48.112;11.662;2023-12-29T10:28:03;95551.28;;;14.01
34310;BMP280;61664;48.112;11.662;2023-12-29T10:30:31;95542.00;;;14.02
34310;BMP280;61664;48.112;11.662;2023-12-29T10:33:03;95545.72;;;14.10
34310;BMP280;61664;48.112;11.662;2023-12-29T10:35:31;95541.84;;;14.11
34310;BMP280;61664;48.112;11.662;2023-12-29T10:38:11;95541.38;;;14.18
34310;BMP280;61664;48.112;11.662;2023-12-29T10:40:39;95536.31;;;14.25
34310;BMP280;61664;48.112;11.662;2023-12-29T10:43:06;95532.41;;;14.26
34310;BMP280;61664;48.112;11.662;2023-12-29T10:45:35;95544.38;;;14.25
34310;BMP280;61664;48.112;11.662;2023-12-29T10:48:05;95531.91;;;14.22
34310;BMP280;61664;48.112;11.662;2023-12-29T10:50:46;95512.38;;;14.22
34310;BMP280;61664;48.112;11.662;2023-12-29T10:53:16;95523.13;;;14.27
34310;BMP280;61664;48.112;11.662;2023-12-29T10:55:46;95517.28;;;14.29
34310;BMP280;61664;48.112;11.662;2023-12-29T10:58:16;95522.94;;;14.37
34310;BMP280;61664;48.112;11.662;2023-12-29T11:00:45;95510.47;;;14.34
34310;BMP280;61664;48.112;11.662;2023-12-29T11:03:17;95515.44;;;14.46
34310;BMP280;61664;48.112;11.662;2023-12-29T11:05:44;95513.72;;;14.49
34310;BMP280;61664;48.112;11.662;2023-12-29T11:08:19;95508.34;;;14.49
34310;BMP280;61664;48.112;11.662;2023-12-29T11:10:50;95501.00;;;14.49
34310;BMP280;61664;48.112;11.662;2023-12-29T11:13:17;95503.25;;;14.56
34310;BMP280;61664;48.112;11.662;2023-12-29T11:15:47;95491.03;;;14.55
34310;BMP280;61664;48.112;11.662;2023-12-29T11:18:16;95497.19;;;14.67
34310;BMP280;61664;48.112;11.662;2023-12-29T11:20:45;95500.66;;;14.73
34310;BMP280;61664;48.112;11.662;2023-12-29T11:23:13;95497.50;;;14.75
34310;BMP280;61664;48.112;11.662;2023-12-29T11:25:44;95492.88;;;14.86
34310;BMP280;61664;48.112;11.662;2023-12-29T11:28:12;95477.72;;;14.83
34310;BMP280;61664;48.112;11.662;2023-12-29T11:30:39;95477.78;;;14.94
34310;BMP280;61664;48.112;11.662;2023-12-29T11:33:26;95485.09;;;14.99
34310;BMP280;61664;48.112;11.662;2023-12-29T11:39:06;95489.81;;;15.16
34310;BMP280;61664;48.112;11.662;2023-12-29T11:44:39;95484.66;;;15.12
34310;BMP280;61664;48.112;11.662;2023-12-29T11:50:04;95488.34;;;15.15
34310;BMP280;61664;48.112;11.662;2023-12-29T11:52:36;95473.41;;;15.14
34310;BMP280;61664;48.112;11.662;2023-12-29T11:55:14;95484.16;;;15.14
34310;BMP280;61664;48.112;11.662;2023-12-29T11:57:46;95476.09;;;15.14
34310;BMP280;61664;48.112;11.662;2023-12-29T12:00:13;95478.56;;;15.12
34310;BMP280;61664;48.112;11.662;2023-12-29T12:02:41;95471.41;;;15.09
34310;BMP280;61664;48.112;11.662;2023-12-29T12:05:10;95480.75;;;15.13
34310;BMP280;61664;48.112;11.662;2023-12-29T12:12:47;95479.25;;;15.07
34310;BMP280;61664;48.112;11.662;2023-12-29T12:17:56;95470.97;;;15.16
34310;BMP280;61664;48.112;11.662;2023-12-29T12:20:24;95472.44;;;15.17
34310;BMP280;61664;48.112;11.662;2023-12-29T12:23:07;95457.75;;;15.12
34310;BMP280;61664;48.112;11.662;2023-12-29T12:25:39;95462.63;;;15.14
34310;BMP280;61664;48.112;11.662;2023-12-29T12:28:09;95454.31;;;15.06
34310;BMP280;61664;48.112;11.662;2023-12-29T12:30:36;95456.50;;;15.02
34310;BMP280;61664;48.112;11.662;2023-12-29T12:33:04;95465.56;;;15.10
34310;BMP280;61664;48.112;11.662;2023-12-29T12:35:33;95464.81;;;15.10
34310;BMP280;61664;48.112;11.662;2023-12-29T12:38:12;95446.44;;;14.97
34310;BMP280;61664;48.112;11.662;2023-12-29T12:40:40;95471.72;;;15.11
34310;BMP280;61664;48.112;11.662;2023-12-29T12:43:08;95458.97;;;15.06
34310;BMP280;61664;48.112;11.662;2023-12-29T12:45:55;95449.91;;;15.09
34310;BMP280;61664;48.112;11.662;2023-12-29T12:48:44;95456.00;;;15.09
34310;BMP280;61664;48.112;11.662;2023-12-29T12:51:13;95461.16;;;15.13
34310;BMP280;61664;48.112;11.662;2023-12-29T12:53:42;95452.09;;;15.10
34310;BMP280;61664;48.112;11.662;2023-12-29T12:56:11;95457.75;;;15.12
34310;BMP280;61664;48.112;11.662;2023-12-29T12:58:38;95476.09;;;15.14
34310;BMP280;61664;48.112;11.662;2023-12-29T13:01:07;95448.22;;;15.11
34310;BMP280;61664;48.112;11.662;2023-12-29T13:03:38;95459.72;;;15.12
34310;BMP280;61664;48.112;11.662;2023-12-29T13:06:06;95451.84;;;15.08
34310;BMP280;61664;48.112;11.662;2023-12-29T13:08:34;95469.97;;;15.13
34310;BMP280;61664;48.112;11.662;2023-12-29T13:11:09;95466.78;;;15.09
34310;BMP280;61664;48.112;11.662;2023-12-29T13:13:42;95458.97;;;15.06
34310;BMP280;61664;48.112;11.662;2023-12-29T13:16:12;95463.63;;;15.11
34310;BMP280;61664;48.112;11.662;2023-12-29T13:18:41;95463.63;;;15.11
34310;BMP280;61664;48.112;11.662;2023-12-29T13:21:08;95465.81;;;15.12
34310;BMP280;61664;48.112;11.662;2023-12-29T13:23:36;95474.88;;;15.15
34310;BMP280;61664;48.112;11.662;2023-12-29T13:26:07;95470.72;;;15.14
34310;BMP280;61664;48.112;11.662;2023-12-29T13:28:37;95463.38;;;15.14
34310;BMP280;61664;48.112;11.662;2023-12-29T13:31:11;95459.91;;;15.08
34310;BMP280;61664;48.112;11.662;2023-12-29T13:33:59;95470.44;;;15.00
34310;BMP280;61664;48.112;11.662;2023-12-29T13:37:24;95467.75;;;15.00
34310;BMP280;61664;48.112;11.662;2023-12-29T13:39:39;95468.22;;;14.93
34310;BMP280;61664;48.112;11.662;2023-12-29T13:42:10;95467.00;;;14.94
34310;BMP280;61664;48.112;11.662;2023-12-29T13:44:41;95467.22;;;14.91
34310;BMP280;61664;48.112;11.662;2023-12-29T13:47:10;95440.97;;;14.69
34310;BMP280;61664;48.112;11.662;2023-12-29T13:49:37;95469.91;;;14.85
34310;BMP280;61664;48.112;11.662;2023-12-29T13:52:05;95472.84;;;14.87
34310;BMP280;61664;48.112;11.662;2023-12-29T13:54:41;95461.06;;;14.79
34310;BMP280;61664;48.112;11.662;2023-12-29T13:57:11;95467.91;;;14.80
34310;BMP280;61664;48.112;11.662;2023-12-29T13:59:39;95469.13;;;14.79
34310;BMP280;61664;48.112;11.662;2023-12-29T14:02:30;95465.69;;;14.79
34310;BMP280;61664;48.112;11.662;2023-12-29T14:10:35;95467.66;;;14.73
34310;BMP280;61664;48.112;11.662;2023-12-29T14:13:11;95465.19;;;14.69
34310;BMP280;61664;48.112;11.662;2023-12-29T14:15:40;95472.03;;;14.70
34310;BMP280;61664;48.112;11.662;2023-12-29T14:21:00;95467.84;;;14.58
34310;BMP280;61664;48.112;11.662;2023-12-29T14:23:27;95472.25;;;14.61
34310;BMP280;61664;48.112;11.662;2023-12-29T14:26:03;95470.25;;;14.56
34310;BMP280;61664;48.112;11.662;2023-12-29T14:28:30;95481.50;;;14.60
34310;BMP280;61664;48.112;11.662;2023-12-29T14:31:03;95475.38;;;14.54
34310;BMP280;61664;48.112;11.662;2023-12-29T14:33:30;95469.22;;;14.48
34310;BMP280;61664;48.112;11.662;2023-12-29T14:35:57;95473.38;;;14.49